Pagina principale
METAR-TAF:

METAR-TAF

Aeroporti :

Selebi-Phikwe, Botswana

latitudine: 22-03-19S, longitudine: 027-49-13E, altezza: 892 m

Osservazione

Il bollettino è stato emesso 1 ora e 19 minuti fa, alle 18:00 UTC
Vento 4 kt da sud-est
Temperature 13°C
Umidità 67%
Pressione 1029 hPa
Visibilità 10 km o più
nessuna nube inferiore a 1500 m e nessun cumulonembo

METAR: FBSP 201800Z 13004KT CAVOK 13/07 Q1029

Ora: 21:19 (19:19 UTC)

Previsione

Il bollettino è stato emesso 7 ore e 19 minuti fa, alle 12:00 UTC
Previsione valida dal 20 alle 15 UTC al 20 alle 24 UTC
Vento 10 kt da est
Visibilità 10 km o più
nessuna nube inferiore a 1500 m e nessun cumulonembo

TAF: FBSP 201200Z 2015/2024 09010KT CAVOK

Osservazioni e previsioni meteorologiche di più di 4000 aeroporti (messaggi METAR e TAF).

Le stazioni disponibili sono rappresentate dai dischi gialli e rossi sulla carta.

Puntare il mouse per vedere il nome della stazione.

Clicca sopra per visualizzare le osservazioni e previsioni meteorologiche.

Per cambiare la mappa : fare clic sui pulsanti verdi con una croce nera per ingrandire, il pulsante verde con un trattino per diminuire, o sulla freccia verde per le mappe adiacenti.


METAR-TAF: